createdAt,value
2017-12-12T00:02:18.924Z,44.57
2017-12-12T00:04:45.252Z,44.30
2017-12-12T00:07:11.578Z,44.30
2017-12-12T00:09:37.958Z,42.77
2017-12-12T00:12:04.284Z,47.27
2017-12-12T00:14:30.674Z,47.37
2017-12-12T00:16:57.036Z,46.67
2017-12-12T00:19:23.371Z,45.70
2017-12-12T00:21:49.696Z,50.50
2017-12-12T00:24:16.079Z,46.20
2017-12-12T00:26:42.408Z,46.40
2017-12-12T00:29:08.719Z,52.77
2017-12-12T00:31:35.091Z,50.93
2017-12-12T00:34:01.534Z,56.13
2017-12-12T00:36:27.881Z,53.80
2017-12-12T00:38:54.272Z,55.50
2017-12-12T00:41:20.605Z,58.67
2017-12-12T00:43:47.056Z,52.57
2017-12-12T00:46:13.428Z,57.87
2017-12-12T00:48:39.756Z,59.50
2017-12-12T00:51:06.079Z,58.80
2017-12-12T00:53:32.439Z,57.27
2017-12-12T00:55:58.783Z,63.10
2017-12-12T00:58:25.131Z,54.10
2017-12-12T01:00:51.500Z,53.40
2017-12-12T01:03:17.845Z,54.50
2017-12-12T01:05:44.165Z,54.70
2017-12-12T01:08:10.588Z,53.80
2017-12-12T01:10:36.929Z,44.70
2017-12-12T01:13:03.303Z,41.57
2017-12-12T01:15:29.668Z,39.83
2017-12-12T01:17:56.032Z,36.57
2017-12-12T01:20:22.426Z,39.13
2017-12-12T01:22:48.808Z,36.30
2017-12-12T01:25:15.128Z,33.13
2017-12-12T01:27:41.452Z,31.67
2017-12-12T01:30:07.815Z,34.37
2017-12-12T01:32:34.367Z,33.07
2017-12-12T01:35:00.688Z,37.90
2017-12-12T01:37:27.152Z,29.77
2017-12-12T01:39:53.511Z,32.60
2017-12-12T01:42:19.932Z,33.33
2017-12-12T01:44:46.460Z,34.43
2017-12-12T01:47:12.987Z,36.53
2017-12-12T01:49:39.381Z,42.07
2017-12-12T01:52:05.830Z,36.77
2017-12-12T01:54:32.332Z,37.07
2017-12-12T01:56:58.736Z,34.97
2017-12-12T01:59:25.191Z,41.03
2017-12-12T02:01:51.573Z,46.50
2017-12-12T02:04:18.060Z,48.37
2017-12-12T02:06:44.543Z,51.57
2017-12-12T02:09:10.967Z,50.53
2017-12-12T02:11:37.423Z,51.27
2017-12-12T02:14:03.888Z,52.03
2017-12-12T02:16:30.288Z,53.47
2017-12-12T02:18:56.672Z,51.00
2017-12-12T02:21:23.115Z,52.87
2017-12-12T02:23:49.519Z,50.13
2017-12-12T02:26:15.948Z,50.93
2017-12-12T02:28:42.415Z,49.23
2017-12-12T02:31:08.870Z,51.03
2017-12-12T02:33:35.296Z,49.17
2017-12-12T02:36:01.858Z,48.60
2017-12-12T02:38:28.272Z,42.90
2017-12-12T02:40:54.827Z,39.53
2017-12-12T02:43:21.283Z,46.67
2017-12-12T02:45:47.700Z,43.00
2017-12-12T02:48:14.120Z,43.23
2017-12-12T02:50:40.663Z,43.17
2017-12-12T02:53:07.097Z,41.07
2017-12-12T02:55:33.527Z,52.53
2017-12-12T02:58:00.013Z,49.33
2017-12-12T03:00:26.443Z,50.23
2017-12-12T03:02:52.863Z,58.53
2017-12-12T03:05:19.343Z,57.43
2017-12-12T03:07:45.773Z,63.97
2017-12-12T03:10:12.180Z,59.70
2017-12-12T03:12:38.648Z,60.33
2017-12-12T03:15:05.076Z,73.50
2017-12-12T03:17:31.632Z,65.17
2017-12-12T03:19:58.080Z,60.73
2017-12-12T03:22:24.505Z,59.20
2017-12-12T03:24:50.910Z,58.27
2017-12-12T03:27:17.392Z,64.40
2017-12-12T03:29:43.798Z,59.40
2017-12-12T03:32:10.210Z,56.97
2017-12-12T03:34:36.672Z,58.43
2017-12-12T03:37:03.073Z,54.33
2017-12-12T03:39:29.532Z,51.13
2017-12-12T03:41:56.001Z,44.43
2017-12-12T03:44:22.419Z,46.43
2017-12-12T03:46:48.806Z,49.60
2017-12-12T03:49:15.248Z,43.80
2017-12-12T03:51:41.663Z,36.93
2017-12-12T03:54:08.065Z,38.37
2017-12-12T03:56:34.536Z,35.77
2017-12-12T03:59:00.928Z,39.43
2017-12-12T04:01:27.343Z,36.43
2017-12-12T04:03:53.775Z,41.30
2017-12-12T04:06:20.174Z,38.80
2017-12-12T04:08:46.627Z,39.77
2017-12-12T04:11:13.072Z,39.80
2017-12-12T04:13:39.467Z,39.13
2017-12-12T04:16:05.872Z,35.67
2017-12-12T04:18:32.320Z,34.50
2017-12-12T04:20:58.720Z,35.33
2017-12-12T04:23:25.144Z,36.17
2017-12-12T04:25:51.595Z,35.43
2017-12-12T04:28:18.016Z,33.57
2017-12-12T04:30:44.656Z,28.73
2017-12-12T04:33:11.131Z,33.10
2017-12-12T04:35:37.548Z,37.20
2017-12-12T04:38:03.943Z,35.13
2017-12-12T04:40:30.388Z,32.40
2017-12-12T04:42:56.767Z,31.50
2017-12-12T04:45:23.158Z,30.00
2017-12-12T04:47:49.636Z,35.70
2017-12-12T04:50:16.019Z,30.23
2017-12-12T04:52:42.427Z,29.00
2017-12-12T04:55:08.876Z,34.00
2017-12-12T04:57:35.264Z,36.67
2017-12-12T05:00:01.677Z,39.60
2017-12-12T05:02:28.157Z,44.00
2017-12-12T05:04:54.568Z,41.10
2017-12-12T05:07:20.960Z,58.37
2017-12-12T05:09:47.417Z,53.63
2017-12-12T05:12:13.816Z,64.27
2017-12-12T05:14:40.325Z,64.03
2017-12-12T05:17:06.795Z,67.20
2017-12-12T05:19:33.295Z,80.63
2017-12-12T05:21:59.704Z,109.60
2017-12-12T05:24:26.104Z,92.70
2017-12-12T05:26:52.524Z,81.30
2017-12-12T05:29:18.960Z,63.77
2017-12-12T05:31:45.437Z,54.40
2017-12-12T05:34:11.893Z,60.43
2017-12-12T05:36:38.307Z,66.03
2017-12-12T05:39:04.797Z,62.10
2017-12-12T05:41:31.268Z,59.87
2017-12-12T05:43:57.734Z,56.83
2017-12-12T05:46:24.698Z,52.17
2017-12-12T05:48:51.092Z,55.30
2017-12-12T05:51:17.520Z,53.57
2017-12-12T05:53:43.997Z,54.10
2017-12-12T05:56:10.383Z,57.37
2017-12-12T05:58:36.843Z,58.40
2017-12-12T06:01:03.458Z,65.33
2017-12-12T06:03:30.080Z,66.97
2017-12-12T06:05:56.546Z,69.33
2017-12-12T06:08:23.018Z,53.57
2017-12-12T06:10:49.439Z,55.50
2017-12-12T06:13:15.847Z,56.03
2017-12-12T06:15:42.262Z,63.07
2017-12-12T06:18:08.694Z,59.73
2017-12-12T06:20:35.148Z,63.83
2017-12-12T06:23:01.616Z,58.90
2017-12-12T06:25:28.142Z,68.07
2017-12-12T06:27:55.035Z,100.97
2017-12-12T06:30:21.631Z,91.83
2017-12-12T06:32:48.057Z,86.63
2017-12-12T06:35:14.470Z,94.40
2017-12-12T06:37:40.920Z,97.33
2017-12-12T06:40:07.641Z,106.57
2017-12-12T06:42:34.074Z,106.57
2017-12-12T06:45:00.520Z,98.70
2017-12-12T06:47:27.043Z,236.73
2017-12-12T06:49:53.691Z,155.17
2017-12-12T06:52:20.249Z,114.20
2017-12-12T06:54:46.647Z,105.43
2017-12-12T06:57:13.056Z,107.30
2017-12-12T06:59:39.513Z,100.87
2017-12-12T07:02:05.921Z,107.60
2017-12-12T07:04:32.408Z,130.17
2017-12-12T07:06:58.972Z,120.30
2017-12-12T07:09:25.451Z,119.93
2017-12-12T07:11:51.936Z,131.73
2017-12-12T07:14:18.381Z,123.67
2017-12-12T07:16:44.840Z,148.27
2017-12-12T07:19:11.288Z,134.00
2017-12-12T07:21:37.752Z,135.00
2017-12-12T07:24:04.140Z,126.10
2017-12-12T07:26:30.572Z,108.93
2017-12-12T07:28:56.972Z,97.50
2017-12-12T07:31:23.332Z,85.60
2017-12-12T07:33:49.887Z,85.33
2017-12-12T07:36:16.308Z,84.37
2017-12-12T07:38:42.736Z,83.90
2017-12-12T07:41:09.101Z,83.90
2017-12-12T07:43:35.512Z,81.47
2017-12-12T07:46:01.950Z,78.43
2017-12-12T07:48:28.360Z,65.67
2017-12-12T07:50:54.768Z,71.13
2017-12-12T07:53:21.184Z,63.93
2017-12-12T07:55:47.587Z,68.77
2017-12-12T07:58:14.001Z,75.90
2017-12-12T08:00:40.395Z,72.13
2017-12-12T08:03:06.794Z,67.90
2017-12-12T08:05:33.246Z,73.50
2017-12-12T08:07:59.680Z,66.40
2017-12-12T08:10:26.108Z,68.60
2017-12-12T08:12:52.623Z,72.40
2017-12-12T08:15:18.985Z,75.23
2017-12-12T08:17:45.479Z,64.97
2017-12-12T08:20:11.912Z,63.47
2017-12-12T08:22:38.327Z,71.93
2017-12-12T08:25:04.706Z,66.20
2017-12-12T08:27:31.142Z,74.70
2017-12-12T08:29:57.524Z,80.60
2017-12-12T08:32:23.895Z,83.63
2017-12-12T08:34:50.646Z,70.40
2017-12-12T08:37:17.151Z,88.23
2017-12-12T08:39:43.508Z,107.03
2017-12-12T08:42:09.892Z,96.40
2017-12-12T08:44:36.348Z,104.67
2017-12-12T08:47:02.728Z,69.93
2017-12-12T08:49:29.149Z,91.20
2017-12-12T08:51:55.523Z,120.07
2017-12-12T08:54:21.876Z,78.50
2017-12-12T08:56:48.514Z,118.97
2017-12-12T08:59:14.932Z,63.37
2017-12-12T09:01:41.381Z,44.63
2017-12-12T09:04:07.796Z,38.87
2017-12-12T09:06:34.163Z,33.77
2017-12-12T09:09:00.508Z,31.53
2017-12-12T09:11:26.944Z,32.40
2017-12-12T09:13:53.291Z,34.93
2017-12-12T09:16:19.703Z,31.77
2017-12-12T09:18:46.928Z,39.70
2017-12-12T09:21:13.326Z,42.87
2017-12-12T09:23:39.689Z,45.40
2017-12-12T09:26:06.080Z,42.40
2017-12-12T09:28:32.485Z,46.07
2017-12-12T09:30:58.849Z,42.37
2017-12-12T09:33:25.321Z,40.23
2017-12-12T09:35:51.641Z,33.03
2017-12-12T09:38:18.084Z,32.30
2017-12-12T09:40:44.512Z,28.63
2017-12-12T09:43:10.864Z,31.83
2017-12-12T09:45:37.212Z,32.90
2017-12-12T09:48:03.644Z,29.07
2017-12-12T09:50:30.004Z,28.60
2017-12-12T09:52:56.375Z,37.77
2017-12-12T09:55:22.948Z,41.13
2017-12-12T09:57:49.448Z,37.30
2017-12-12T10:00:15.827Z,31.37
2017-12-12T10:02:42.272Z,33.63
2017-12-12T10:05:08.754Z,28.70
2017-12-12T10:07:35.140Z,29.97
2017-12-12T10:10:01.665Z,39.63
2017-12-12T10:12:28.032Z,33.60
2017-12-12T10:14:54.378Z,33.30
2017-12-12T10:17:20.791Z,32.20
2017-12-12T10:19:47.124Z,31.57
2017-12-12T10:22:13.466Z,34.47
2017-12-12T10:24:39.834Z,34.10
2017-12-12T10:27:06.196Z,34.70
2017-12-12T10:29:32.548Z,33.57
2017-12-12T10:31:58.932Z,31.60
2017-12-12T10:34:25.303Z,37.10
2017-12-12T10:36:51.712Z,35.33
2017-12-12T10:39:18.181Z,34.87
2017-12-12T10:41:44.606Z,31.47
2017-12-12T10:44:11.169Z,32.20
2017-12-12T10:46:37.652Z,28.23
2017-12-12T10:49:04.073Z,24.47
2017-12-12T10:51:30.516Z,25.17
2017-12-12T10:53:57.111Z,21.37
2017-12-12T10:56:23.520Z,18.90
2017-12-12T10:58:50.052Z,22.27
2017-12-12T11:01:16.522Z,21.13
2017-12-12T11:03:42.907Z,20.97
2017-12-12T11:06:09.374Z,24.00
2017-12-12T11:08:35.734Z,25.07
2017-12-12T11:11:02.077Z,22.13
2017-12-12T11:13:28.405Z,23.20
2017-12-12T11:15:55.084Z,24.00
2017-12-12T11:18:21.746Z,22.80
2017-12-12T11:20:48.088Z,22.00
2017-12-12T11:23:14.529Z,19.97
2017-12-12T11:25:41.045Z,23.47
2017-12-12T11:28:07.463Z,28.50
2017-12-12T11:30:34.116Z,23.70
2017-12-12T11:33:00.548Z,24.67
2017-12-12T11:35:26.982Z,24.67
2017-12-12T11:37:53.545Z,24.00
2017-12-12T11:40:20.053Z,26.60
2017-12-12T11:42:46.404Z,26.00
2017-12-12T11:45:12.842Z,27.00
2017-12-12T11:47:39.423Z,23.67
2017-12-12T11:50:06.298Z,27.77
2017-12-12T11:52:32.788Z,26.37
2017-12-12T11:54:59.182Z,28.40
2017-12-12T11:57:25.702Z,25.70
2017-12-12T11:59:52.213Z,27.27
2017-12-12T12:02:18.689Z,28.33
2017-12-12T12:04:45.140Z,31.50
2017-12-12T12:07:11.821Z,31.03
2017-12-12T12:09:38.292Z,31.97
2017-12-12T12:12:04.760Z,31.57
2017-12-12T12:14:31.239Z,36.07
2017-12-12T12:16:57.653Z,33.17
2017-12-12T12:19:24.080Z,32.27
2017-12-12T12:21:50.504Z,32.40
2017-12-12T12:24:16.978Z,33.93
2017-12-12T12:26:43.496Z,31.67
2017-12-12T12:29:09.918Z,24.87
2017-12-12T12:31:36.363Z,25.00
2017-12-12T12:34:02.799Z,28.80
2017-12-12T12:36:29.272Z,25.13
2017-12-12T12:38:55.937Z,26.37
2017-12-12T12:41:22.380Z,29.37
2017-12-12T12:43:48.828Z,29.00
2017-12-12T12:46:15.226Z,33.60
2017-12-12T12:48:41.747Z,31.33
2017-12-12T12:51:09.190Z,28.33
2017-12-12T12:53:35.581Z,26.37
2017-12-12T12:56:02.005Z,29.90
2017-12-12T12:58:28.477Z,25.57
2017-12-12T13:00:54.861Z,28.30
2017-12-12T13:03:21.265Z,25.10
2017-12-12T13:05:47.670Z,24.13
2017-12-12T13:08:14.208Z,25.27
2017-12-12T13:10:40.612Z,33.37
2017-12-12T13:13:07.020Z,26.90
2017-12-12T13:15:33.384Z,24.70
2017-12-12T13:17:59.724Z,27.33
2017-12-12T13:20:26.537Z,22.80
2017-12-12T13:22:52.941Z,29.87
2017-12-12T13:25:19.345Z,25.60
2017-12-12T13:27:45.882Z,28.00
2017-12-12T13:30:12.384Z,29.87
2017-12-12T13:32:39.054Z,27.00
2017-12-12T13:35:05.460Z,31.17
2017-12-12T13:37:31.836Z,32.90
2017-12-12T13:39:58.252Z,30.40
2017-12-12T13:42:24.684Z,46.37
2017-12-12T13:44:51.119Z,43.73
2017-12-12T13:47:17.757Z,40.93
2017-12-12T13:49:44.220Z,46.50
2017-12-12T13:52:10.600Z,58.90
2017-12-12T13:54:36.932Z,65.83
2017-12-12T13:57:03.313Z,60.77
2017-12-12T13:59:29.632Z,59.23
2017-12-12T14:01:56.107Z,55.70
2017-12-12T14:04:22.488Z,54.60
2017-12-12T14:06:48.842Z,60.93
2017-12-12T14:09:15.172Z,61.73
2017-12-12T14:11:41.537Z,74.63
2017-12-12T14:14:07.884Z,76.33
2017-12-12T14:16:34.261Z,71.20
2017-12-12T14:19:00.775Z,69.23
2017-12-12T14:21:27.099Z,85.10
2017-12-12T14:23:53.437Z,86.40
2017-12-12T14:26:19.870Z,88.47
2017-12-12T14:28:46.195Z,94.10
2017-12-12T14:31:12.516Z,88.97
2017-12-12T14:33:39.987Z,92.63
2017-12-12T14:36:06.423Z,88.73
2017-12-12T14:38:32.753Z,92.10
2017-12-12T14:40:59.140Z,103.33
2017-12-12T14:43:25.524Z,83.90
2017-12-12T14:45:51.872Z,85.63
2017-12-12T14:48:18.257Z,115.07
2017-12-12T14:50:44.597Z,124.80
2017-12-12T14:53:10.977Z,118.40
2017-12-12T14:55:37.363Z,103.23
2017-12-12T15:22:13.494Z,156.47
2017-12-12T15:24:39.823Z,148.90
2017-12-12T15:27:06.262Z,163.77
2017-12-12T15:29:32.679Z,161.47
2017-12-12T15:31:59.007Z,149.53
2017-12-12T15:34:26.274Z,149.27
2017-12-12T15:36:52.697Z,157.00
2017-12-12T15:39:20.230Z,153.70
2017-12-12T15:41:46.704Z,152.60
2017-12-12T15:44:13.124Z,140.97
2017-12-12T15:46:39.445Z,125.17
2017-12-12T15:49:05.771Z,132.00
2017-12-12T15:51:32.180Z,141.70
2017-12-12T15:53:58.588Z,124.47
2017-12-12T15:56:24.919Z,117.53
2017-12-12T15:58:51.297Z,132.93
2017-12-12T16:01:17.880Z,157.97
2017-12-12T16:03:44.220Z,190.87
2017-12-12T16:06:10.627Z,202.43
2017-12-12T16:08:37.551Z,230.70
2017-12-12T16:11:04.244Z,244.70
2017-12-12T16:13:30.814Z,277.27
2017-12-12T16:15:57.351Z,287.33
2017-12-12T16:18:23.780Z,285.17
2017-12-12T16:20:50.251Z,274.33
2017-12-12T16:23:16.805Z,168.87
2017-12-12T16:25:43.322Z,228.67
2017-12-12T16:28:09.683Z,255.63
2017-12-12T16:30:36.086Z,257.60
2017-12-12T16:33:02.476Z,242.57
2017-12-12T16:35:28.920Z,241.73
2017-12-12T16:37:55.364Z,238.73
2017-12-12T16:40:22.015Z,230.83
2017-12-12T16:42:49.246Z,244.57
2017-12-12T16:45:15.626Z,263.37
2017-12-12T16:47:42.112Z,276.27
2017-12-12T16:50:08.512Z,237.23
2017-12-12T16:52:34.891Z,270.37
2017-12-12T16:55:01.233Z,273.53
2017-12-12T16:57:27.616Z,285.53
2017-12-12T16:59:54.014Z,288.30
2017-12-12T17:02:20.559Z,321.37
2017-12-12T17:04:47.230Z,312.67
2017-12-12T17:07:13.578Z,283.60
2017-12-12T17:09:39.909Z,270.57
2017-12-12T17:12:06.332Z,280.50
2017-12-12T17:14:32.948Z,280.67
2017-12-12T17:16:59.651Z,271.37
2017-12-12T17:19:26.141Z,258.17
2017-12-12T17:21:52.545Z,260.80
2017-12-12T17:24:18.959Z,256.20
2017-12-12T17:26:46.574Z,257.87
2017-12-12T17:29:13.309Z,277.50
2017-12-12T17:31:39.697Z,289.70
2017-12-12T17:34:06.081Z,265.97
2017-12-12T17:36:32.428Z,236.50
2017-12-12T17:38:58.767Z,242.20
2017-12-12T17:41:25.159Z,241.03
2017-12-12T17:43:51.584Z,245.20
2017-12-12T17:46:17.940Z,237.63
2017-12-12T17:48:44.340Z,227.80
2017-12-12T17:51:10.664Z,212.90
2017-12-12T17:53:37.721Z,209.23
2017-12-12T17:56:04.188Z,219.77
2017-12-12T17:58:30.532Z,214.30
2017-12-12T18:00:56.917Z,230.40
2017-12-12T18:03:23.468Z,245.53
2017-12-12T18:05:49.879Z,243.30
2017-12-12T18:08:17.835Z,232.83
2017-12-12T18:10:44.587Z,238.60
2017-12-12T18:13:13.208Z,239.50
2017-12-12T18:15:40.337Z,244.83
2017-12-12T18:18:07.078Z,238.77
2017-12-12T18:20:34.121Z,230.47
2017-12-12T18:23:00.505Z,240.13
2017-12-12T18:25:27.871Z,208.90
2017-12-12T18:27:54.934Z,216.97
2017-12-12T18:30:26.784Z,216.43
2017-12-12T18:32:53.320Z,214.23
2017-12-12T18:35:19.687Z,209.00
2017-12-12T18:37:46.077Z,211.83
2017-12-12T18:40:12.640Z,237.03
2017-12-12T18:42:38.973Z,229.13
2017-12-12T18:45:05.340Z,231.00
2017-12-12T18:47:31.752Z,248.83
2017-12-12T18:49:58.088Z,239.93
2017-12-12T18:52:24.480Z,237.27
2017-12-12T18:54:50.852Z,240.93
2017-12-12T18:57:17.180Z,244.40
2017-12-12T18:59:43.543Z,247.77
2017-12-12T19:02:09.975Z,264.57
2017-12-12T19:04:36.412Z,265.03
2017-12-12T19:07:02.761Z,272.07
2017-12-12T19:09:29.144Z,297.93
2017-12-12T19:11:55.524Z,280.37
2017-12-12T19:14:21.877Z,284.13
2017-12-12T19:16:48.336Z,270.60
2017-12-12T19:19:14.756Z,304.50
2017-12-12T19:21:41.160Z,307.57
2017-12-12T19:24:07.619Z,320.57
2017-12-12T19:26:34.000Z,301.93
2017-12-12T19:29:00.496Z,295.63
2017-12-12T19:31:27.028Z,294.67
2017-12-12T19:33:53.598Z,272.33
2017-12-12T19:36:20.024Z,290.50
2017-12-12T19:38:46.476Z,286.10
2017-12-12T19:41:12.847Z,284.30
2017-12-12T19:43:39.216Z,288.13
2017-12-12T19:46:05.642Z,306.83
2017-12-12T19:48:32.029Z,305.10
2017-12-12T19:50:58.436Z,300.10
2017-12-12T19:53:24.900Z,304.27
2017-12-12T19:55:51.313Z,307.07
2017-12-12T19:58:17.684Z,300.20
2017-12-12T20:00:44.132Z,274.80
2017-12-12T20:03:11.282Z,287.40
2017-12-12T20:05:37.884Z,317.37
2017-12-12T20:08:04.626Z,303.73
2017-12-12T20:10:31.224Z,314.53
2017-12-12T20:12:57.607Z,330.80
2017-12-12T20:15:24.127Z,355.60
2017-12-12T20:17:50.577Z,351.53
2017-12-12T20:20:16.988Z,356.83
2017-12-12T20:22:43.388Z,350.20
2017-12-12T20:25:09.757Z,328.17
2017-12-12T20:27:36.217Z,323.00
2017-12-12T20:30:02.660Z,291.53
2017-12-12T20:32:29.039Z,270.53
2017-12-12T20:34:55.359Z,247.77
2017-12-12T20:37:21.740Z,210.57
2017-12-12T20:39:48.276Z,199.00
2017-12-12T20:42:14.611Z,181.73
2017-12-12T20:44:41.044Z,182.97
2017-12-12T20:47:07.372Z,172.73
2017-12-12T20:49:33.916Z,149.03
2017-12-12T20:52:00.321Z,141.07
2017-12-12T20:54:26.648Z,140.33
2017-12-12T20:56:53.163Z,131.37
2017-12-12T20:59:19.587Z,140.70
2017-12-12T21:01:45.927Z,152.10
2017-12-12T21:04:12.267Z,160.00
2017-12-12T21:06:38.644Z,153.83
2017-12-12T21:09:05.104Z,161.27
2017-12-12T21:11:31.528Z,147.13
2017-12-12T21:13:58.001Z,172.17
2017-12-12T21:16:24.373Z,181.30
2017-12-12T21:18:50.756Z,174.73
2017-12-12T21:21:17.153Z,177.47
2017-12-12T21:23:43.496Z,175.53
2017-12-12T21:26:09.891Z,179.40
2017-12-12T21:28:36.280Z,175.00
2017-12-12T21:31:02.623Z,191.67
2017-12-12T21:33:29.187Z,196.97
2017-12-12T21:35:55.631Z,205.40
2017-12-12T21:38:21.967Z,199.37
2017-12-12T21:40:48.369Z,194.57
2017-12-12T21:43:14.784Z,189.70
2017-12-12T21:45:41.242Z,190.27
2017-12-12T21:48:07.669Z,191.50
2017-12-12T21:50:34.480Z,184.80
2017-12-12T21:53:00.828Z,165.30
2017-12-12T21:55:27.173Z,155.30
2017-12-12T21:57:53.547Z,142.80
2017-12-12T22:00:19.909Z,128.17
2017-12-12T22:02:46.340Z,127.93
2017-12-12T22:05:12.733Z,115.67
2017-12-12T22:07:39.088Z,105.93
2017-12-12T22:10:05.569Z,103.93
2017-12-12T22:12:31.975Z,100.80
2017-12-12T22:14:58.435Z,92.07
2017-12-12T22:17:25.332Z,92.93
2017-12-12T22:19:51.728Z,98.83
2017-12-12T22:22:18.064Z,92.50
2017-12-12T22:24:44.412Z,91.67
2017-12-12T22:27:10.816Z,103.80
2017-12-12T22:29:37.152Z,106.13
2017-12-12T22:32:03.537Z,119.93
2017-12-12T22:34:29.914Z,115.23
2017-12-12T22:36:56.220Z,115.93
2017-12-12T22:39:22.536Z,115.83
2017-12-12T22:41:48.911Z,126.27
2017-12-12T22:44:15.243Z,132.27
2017-12-12T22:46:41.620Z,140.90
2017-12-12T22:49:08.109Z,132.77
2017-12-12T22:51:34.444Z,133.10
2017-12-12T22:54:00.771Z,131.37
2017-12-12T22:56:27.188Z,145.17
2017-12-12T22:58:53.504Z,152.70
2017-12-12T23:01:19.881Z,150.20
2017-12-12T23:03:46.383Z,161.30
2017-12-12T23:06:12.692Z,163.33
2017-12-12T23:08:39.003Z,165.67
2017-12-12T23:11:05.580Z,163.93
2017-12-12T23:13:31.896Z,159.73
2017-12-12T23:15:58.566Z,171.77
2017-12-12T23:18:24.981Z,170.13
2017-12-12T23:20:51.292Z,169.80
2017-12-12T23:23:17.679Z,178.40
2017-12-12T23:25:44.075Z,164.30
2017-12-12T23:28:10.511Z,153.60
2017-12-12T23:30:36.916Z,156.07
2017-12-12T23:33:03.364Z,146.00
2017-12-12T23:35:29.708Z,156.63
2017-12-12T23:37:56.048Z,149.77
2017-12-12T23:40:22.408Z,138.67
2017-12-12T23:42:48.736Z,129.40
2017-12-12T23:45:15.967Z,127.50
2017-12-12T23:47:42.351Z,118.30
2017-12-12T23:50:08.684Z,125.20
2017-12-12T23:52:35.008Z,117.93
2017-12-12T23:55:01.526Z,110.30
2017-12-12T23:57:27.850Z,108.53
2017-12-12T23:59:54.245Z,91.70
